Thunder radar more information blitzortung!


Radar de pluja more information rain snow radar


Visita la nostra xarxa de llocs de meteo:

Template documentation
and downloads

And another site



No particular awareness of the weather is required.    There are no Weather-warnings

Pagina Historial Weather Underground text

Diari Resum January 3, 2016 Unitats:  Mètric    Imperial   Tant
« Previous Dia
SegĂźent Dia »
Diari Setmana Mensual Anual Personalitzada
  Maxima: Minima: Media:
Temperatura: 12.9 °C 8.9 °C 10.8 °C
Punt de rosada: 4.6 °C 0.6 °C 2.9 °C
Humitat: 69 % 50 % 59 %
Wind Speed: 22.2 km/h 1.9 km/h 8.6 km/h
RĂ fegues de vent: 22.2 km/h - -
Vent:- - WSW
Pression baro: 1015.8 hPa 1006.0 hPa -
Precipitacions: 0.0 mm    
Historical Graphs
 
 
Dades de taula per January 3, 2016
Temps Temperatura Punt de rosada Pression baro Vent Wind Speed RĂ fegues de vent Humitat Rainfall Rate (Hourly)
11:18 8.9 °C 0.6 °C 1014.8 hPa WSW 1.9 km/h   56 % 0.0 mm
11:23 9.0 °C 0.7 °C 1014.8 hPa WSW 2.3 km/h 2.3 km/h 56 % 0.0 mm
11:28 9.0 °C 0.7 °C 1015.8 hPa WSW 1.9 km/h 2.3 km/h 56 % 0.0 mm
11:33 9.2 °C 1.1 °C 1015.8 hPa SW 1.9 km/h   57 % 0.0 mm
11:38 9.2 °C 1.1 °C 1015.8 hPa SW 3.7 km/h 4.2 km/h 57 % 0.0 mm
11:43 9.4 °C 1.1 °C 1014.8 hPa SW 5.6 km/h 5.6 km/h 56 % 0.0 mm
11:48 9.5 °C 1.2 °C 1014.8 hPa West 6.9 km/h 6.9 km/h 56 % 0.0 mm
11:53 9.8 °C 1.4 °C 1014.8 hPa SW 3.7 km/h 3.7 km/h 56 % 0.0 mm
11:58 9.9 °C 1.5 °C 1014.8 hPa WSW 5.8 km/h 5.8 km/h 56 % 0.0 mm
12:03 10.1 °C 1.4 °C 1014.8 hPa West 3.7 km/h 3.7 km/h 55 % 0.0 mm
12:08 10.4 °C 1.5 °C 1014.8 hPa West 7.4 km/h 7.4 km/h 54 % 0.0 mm
12:13 10.7 °C 1.8 °C 1014.8 hPa WNW 7.4 km/h 7.4 km/h 54 % 0.0 mm
12:18 10.7 °C 1.5 °C 1014.8 hPa SW 5.6 km/h 5.6 km/h 53 % 0.0 mm
12:23 10.8 °C 1.6 °C 1014.8 hPa WSW 7.4 km/h 7.4 km/h 53 % 0.0 mm
12:28 10.9 °C 1.4 °C 1013.8 hPa WSW 7.4 km/h 7.4 km/h 52 % 0.0 mm
12:33 11.1 °C 1.9 °C 1013.8 hPa SW 4.2 km/h 4.2 km/h 53 % 0.0 mm
12:38 11.1 °C 1.9 °C 1013.8 hPa SSW 7.4 km/h 7.4 km/h 53 % 0.0 mm
12:43 11.3 °C 1.8 °C 1013.8 hPa SW 3.9 km/h 3.9 km/h 52 % 0.0 mm
12:48 11.3 °C 1.8 °C 1013.8 hPa WSW 7.4 km/h 7.4 km/h 52 % 0.0 mm
12:53 11.4 °C 1.9 °C 1013.8 hPa WNW 5.6 km/h 5.6 km/h 52 % 0.0 mm
12:58 11.4 °C 1.9 °C 1013.8 hPa WSW 7.4 km/h 7.4 km/h 52 % 0.0 mm
13:03 11.4 °C 1.9 °C 1013.8 hPa WSW 5.6 km/h 5.6 km/h 52 % 0.0 mm
13:08 11.5 °C 2.0 °C 1013.8 hPa WNW 9.3 km/h 9.3 km/h 52 % 0.0 mm
13:13 11.6 °C 1.8 °C 1012.8 hPa WSW 13.7 km/h 13.7 km/h 51 % 0.0 mm
13:18 11.8 °C 2.0 °C 1012.8 hPa WSW 13.0 km/h 13.0 km/h 51 % 0.0 mm
13:23 12.1 °C 2.3 °C 1012.8 hPa ENE 11.1 km/h 11.1 km/h 51 % 0.0 mm
13:28 12.3 °C 2.4 °C 1010.7 hPa WSW 9.3 km/h 9.3 km/h 51 % 0.0 mm
13:33 12.7 °C 2.8 °C 1010.7 hPa NNW 9.3 km/h 9.3 km/h 51 % 0.0 mm
13:38 12.9 °C 3.0 °C 1010.7 hPa WSW 13.0 km/h 13.0 km/h 51 % 0.0 mm
13:43 12.8 °C 2.6 °C 1011.7 hPa WSW 13.0 km/h 13.0 km/h 50 % 0.0 mm
13:48 12.8 °C 2.9 °C 1011.7 hPa WSW 8.7 km/h 8.7 km/h 51 % 0.0 mm
13:53 12.7 °C 2.6 °C 1011.7 hPa WSW 13.0 km/h 13.0 km/h 50 % 0.0 mm
13:58 12.7 °C 2.6 °C 1011.7 hPa West 13.0 km/h 13.0 km/h 50 % 0.0 mm
14:03 12.9 °C 3.0 °C 1011.7 hPa WSW 9.0 km/h 9.0 km/h 51 % 0.0 mm
14:08 12.9 °C 2.7 °C 1011.7 hPa WSW 11.1 km/h 11.1 km/h 50 % 0.0 mm
14:13 12.8 °C 2.6 °C 1010.7 hPa NW 16.7 km/h 16.7 km/h 50 % 0.0 mm
14:18 12.7 °C 2.6 °C 1010.7 hPa SSW 13.0 km/h 13.0 km/h 50 % 0.0 mm
14:23 12.7 °C 2.6 °C 1010.7 hPa West 9.3 km/h 9.3 km/h 50 % 0.0 mm
14:28 12.6 °C 2.4 °C 1010.7 hPa WSW 22.2 km/h 22.2 km/h 50 % 0.0 mm
14:33 12.6 °C 2.4 °C 1010.7 hPa WSW 7.4 km/h 7.4 km/h 50 % 0.0 mm
14:38 12.5 °C 2.3 °C 1010.7 hPa SW 22.2 km/h 22.2 km/h 50 % 0.0 mm
14:43 12.6 °C 2.4 °C 1010.0 hPa WNW 13.0 km/h 13.0 km/h 50 % 0.0 mm
14:48 12.7 °C 2.6 °C 1010.0 hPa West 10.3 km/h 10.3 km/h 50 % 0.0 mm
14:53 12.7 °C 2.6 °C 1010.0 hPa WSW 22.2 km/h 22.2 km/h 50 % 0.0 mm
14:58 12.7 °C 2.6 °C 1010.0 hPa WNW 13.0 km/h 13.0 km/h 50 % 0.0 mm
15:03 12.5 °C 2.3 °C 1010.0 hPa ESE 16.7 km/h 16.7 km/h 50 % 0.0 mm
15:08 12.4 °C 2.3 °C 1010.0 hPa West 11.1 km/h 11.1 km/h 50 % 0.0 mm
15:13 12.2 °C 2.1 °C 1010.0 hPa WNW 9.3 km/h 9.5 km/h 50 % 0.0 mm
15:18 12.2 °C 2.1 °C 1010.0 hPa WSW 7.4 km/h 7.4 km/h 50 % 0.0 mm
15:23 12.1 °C 2.0 °C 1010.0 hPa SW 13.0 km/h 13.0 km/h 50 % 0.0 mm
15:28 12.1 °C 2.3 °C 1010.0 hPa West 4.7 km/h 4.7 km/h 51 % 0.0 mm
15:33 12.0 °C 2.2 °C 1010.0 hPa SW 11.1 km/h 11.1 km/h 51 % 0.0 mm
15:38 11.9 °C 2.1 °C 1010.0 hPa WSW 7.4 km/h 7.4 km/h 51 % 0.0 mm
15:43 11.9 °C 2.1 °C 1010.0 hPa West 7.4 km/h 7.4 km/h 51 % 0.0 mm
15:48 11.9 °C 2.1 °C 1010.0 hPa WSW 9.3 km/h 9.3 km/h 51 % 0.0 mm
15:53 11.8 °C 2.0 °C 1010.0 hPa WSW 9.3 km/h 9.3 km/h 51 % 0.0 mm
15:58 11.8 °C 2.0 °C 1009.0 hPa SW 7.4 km/h 7.4 km/h 51 % 0.0 mm
16:03 11.8 °C 2.0 °C 1009.0 hPa WSW 13.7 km/h 13.7 km/h 51 % 0.0 mm
16:08 11.7 °C 1.9 °C 1009.0 hPa WNW 15.8 km/h 15.8 km/h 51 % 0.0 mm
16:13 11.7 °C 1.9 °C 1009.0 hPa West 14.8 km/h 14.8 km/h 51 % 0.0 mm
16:18 11.6 °C 2.1 °C 1009.0 hPa West 14.8 km/h 14.8 km/h 52 % 0.0 mm
16:24 11.6 °C 2.1 °C 1009.0 hPa West 11.1 km/h 11.1 km/h 52 % 0.0 mm
16:29 11.6 °C 2.1 °C 1009.0 hPa SSW 13.0 km/h 13.0 km/h 52 % 0.0 mm
16:34 11.5 °C 2.0 °C 1009.0 hPa WSW 3.7 km/h 7.2 km/h 52 % 0.0 mm
16:39 11.5 °C 2.0 °C 1009.0 hPa WSW 7.9 km/h 10.3 km/h 52 % 0.0 mm
16:44 11.5 °C 2.0 °C 1010.0 hPa WSW 13.0 km/h 13.0 km/h 52 % 0.0 mm
16:49 11.4 °C 1.9 °C 1010.0 hPa SW 13.0 km/h 13.0 km/h 52 % 0.0 mm
16:54 11.4 °C 1.9 °C 1010.0 hPa SW 5.6 km/h 9.0 km/h 52 % 0.0 mm
16:59 11.3 °C 2.1 °C 1009.0 hPa SW 5.6 km/h 9.0 km/h 53 % 0.0 mm
17:04 11.3 °C 2.1 °C 1009.0 hPa SW 5.6 km/h 9.0 km/h 53 % 0.0 mm
17:09 11.3 °C 2.1 °C 1009.0 hPa SW 5.6 km/h 9.0 km/h 53 % 0.0 mm
17:14 11.2 °C 1.9 °C 1009.0 hPa SW 5.6 km/h 9.0 km/h 53 % 0.0 mm
17:19 11.2 °C 1.9 °C 1009.0 hPa SW 5.6 km/h 9.0 km/h 53 % 0.0 mm
17:24 11.1 °C 2.1 °C 1009.0 hPa SW 9.7 km/h 9.7 km/h 54 % 0.0 mm
17:29 11.0 °C 2.1 °C 1009.0 hPa WNW 9.5 km/h 9.5 km/h 54 % 0.0 mm
17:34 11.0 °C 2.1 °C 1009.0 hPa WSW 13.7 km/h 13.7 km/h 54 % 0.0 mm
17:39 10.9 °C 2.2 °C 1009.0 hPa WSW 11.1 km/h 11.1 km/h 55 % 0.0 mm
17:44 10.8 °C 2.1 °C 1009.0 hPa WSW 9.3 km/h 9.3 km/h 55 % 0.0 mm
17:49 10.8 °C 2.4 °C 1009.0 hPa SW 9.7 km/h 9.7 km/h 56 % 0.0 mm
17:54 10.7 °C 2.3 °C 1009.0 hPa SSW 9.7 km/h 9.7 km/h 56 % 0.0 mm
17:59 10.6 °C 2.4 °C 1009.0 hPa SW 8.7 km/h 8.7 km/h 57 % 0.0 mm
18:04 10.6 °C 2.7 °C 1009.0 hPa South 11.1 km/h 11.1 km/h 58 % 0.0 mm
18:09 10.5 °C 2.8 °C 1009.0 hPa SW 7.9 km/h 8.7 km/h 59 % 0.0 mm
18:14 10.5 °C 2.8 °C 1008.0 hPa WSW 7.4 km/h 7.4 km/h 59 % 0.0 mm
18:19 10.5 °C 3.1 °C 1008.0 hPa SW 9.3 km/h 9.3 km/h 60 % 0.0 mm
18:24 10.4 °C 3.2 °C 1008.0 hPa WSW 9.3 km/h 9.3 km/h 61 % 0.0 mm
18:34 10.4 °C 3.2 °C 1009.0 hPa WSW 9.3 km/h 9.3 km/h 61 % 0.0 mm
18:39 10.3 °C 3.3 °C 1009.0 hPa WSW 9.3 km/h 9.3 km/h 62 % 0.0 mm
18:44 10.3 °C 3.3 °C 1008.0 hPa WSW 9.3 km/h 9.5 km/h 62 % 0.0 mm
18:49 10.2 °C 3.4 °C 1008.0 hPa WSW 9.3 km/h 9.3 km/h 63 % 0.0 mm
18:54 10.2 °C 3.4 °C 1008.0 hPa WSW 9.3 km/h 9.3 km/h 63 % 0.0 mm
18:59 10.2 °C 3.4 °C 1008.0 hPa West 11.9 km/h 11.9 km/h 63 % 0.0 mm
19:04 10.1 °C 3.6 °C 1008.0 hPa WSW 7.4 km/h 7.4 km/h 64 % 0.0 mm
19:09 10.1 °C 3.6 °C 1008.0 hPa SSW 9.5 km/h 9.5 km/h 64 % 0.0 mm
19:14 10.0 °C 3.5 °C 1008.0 hPa SSW 9.5 km/h 9.5 km/h 64 % 0.0 mm
19:19 10.0 °C 3.7 °C 1008.0 hPa WSW 14.8 km/h 14.8 km/h 65 % 0.0 mm
19:24 10.0 °C 3.7 °C 1008.0 hPa SW 11.4 km/h 11.4 km/h 65 % 0.0 mm
19:29 10.0 °C 3.7 °C 1008.0 hPa West 7.4 km/h 7.6 km/h 65 % 0.0 mm
19:34 10.0 °C 3.7 °C 1008.0 hPa WSW 9.3 km/h 9.3 km/h 65 % 0.0 mm
19:39 10.0 °C 3.9 °C 1008.0 hPa WSW 11.1 km/h 11.1 km/h 66 % 0.0 mm
19:44 10.0 °C 3.9 °C 1008.0 hPa WSW 7.4 km/h 7.4 km/h 66 % 0.0 mm
19:49 10.0 °C 3.9 °C 1008.0 hPa WSW 5.8 km/h 5.8 km/h 66 % 0.0 mm
19:54 10.0 °C 3.9 °C 1008.0 hPa WSW 7.4 km/h 7.4 km/h 66 % 0.0 mm
19:59 10.0 °C 3.9 °C 1008.0 hPa WSW 7.4 km/h 7.4 km/h 66 % 0.0 mm
20:04 10.0 °C 3.9 °C 1008.0 hPa WSW 10.0 km/h 10.0 km/h 66 % 0.0 mm
20:14 10.0 °C 4.2 °C 1009.0 hPa West 5.6 km/h 6.1 km/h 67 % 0.0 mm
20:19 10.0 °C 4.2 °C 1009.0 hPa WSW 4.7 km/h 5.3 km/h 67 % 0.0 mm
20:24 10.0 °C 4.2 °C 1009.0 hPa WSW 4.7 km/h 5.3 km/h 67 % 0.0 mm
20:29 9.9 °C 4.1 °C 1008.0 hPa WSW 7.4 km/h 7.6 km/h 67 % 0.0 mm
20:34 9.9 °C 4.1 °C 1008.0 hPa WSW 7.6 km/h 10.8 km/h 67 % 0.0 mm
20:39 9.9 °C 4.1 °C 1008.0 hPa SW 15.6 km/h 15.6 km/h 67 % 0.0 mm
20:44 9.9 °C 4.1 °C 1008.0 hPa WSW 9.0 km/h 9.0 km/h 67 % 0.0 mm
20:49 9.9 °C 4.3 °C 1008.0 hPa WSW 14.8 km/h 14.8 km/h 68 % 0.0 mm
20:54 9.9 °C 4.3 °C 1008.0 hPa WSW 14.8 km/h 14.8 km/h 68 % 0.0 mm
20:59 10.0 °C 4.3 °C 1008.0 hPa WSW 9.3 km/h 9.3 km/h 68 % 0.0 mm
21:04 10.0 °C 4.3 °C 1008.0 hPa WSW 5.6 km/h 9.0 km/h 68 % 0.0 mm
21:09 9.9 °C 4.3 °C 1008.0 hPa WSW 5.6 km/h 9.0 km/h 68 % 0.0 mm
21:14 9.9 °C 4.3 °C 1008.0 hPa WSW 5.6 km/h 9.0 km/h 68 % 0.0 mm
21:19 9.9 °C 4.3 °C 1008.0 hPa WSW 5.6 km/h 9.0 km/h 68 % 0.0 mm
21:24 9.8 °C 4.2 °C 1008.0 hPa WSW 5.6 km/h 9.0 km/h 68 % 0.0 mm
21:29 9.8 °C 4.2 °C 1008.0 hPa WSW 5.6 km/h 9.0 km/h 68 % 0.0 mm
21:34 9.8 °C 4.2 °C 1008.0 hPa WSW 5.6 km/h 9.0 km/h 68 % 0.0 mm
21:39 9.8 °C 4.4 °C 1008.0 hPa WSW 5.6 km/h 9.0 km/h 69 % 0.0 mm
21:44 9.8 °C 4.4 °C 1008.0 hPa WSW 5.6 km/h 9.0 km/h 69 % 0.0 mm
21:49 9.8 °C 4.4 °C 1008.0 hPa WSW 5.6 km/h 9.0 km/h 69 % 0.0 mm
21:54 9.8 °C 4.4 °C 1008.0 hPa WSW 5.6 km/h 9.0 km/h 69 % 0.0 mm
21:59 9.8 °C 4.4 °C 1007.0 hPa WSW 5.6 km/h 9.0 km/h 69 % 0.0 mm
22:04 9.7 °C 4.3 °C 1007.0 hPa WSW 5.6 km/h 9.0 km/h 69 % 0.0 mm
22:09 9.7 °C 4.3 °C 1007.0 hPa WSW 5.6 km/h 9.0 km/h 69 % 0.0 mm
22:14 9.6 °C 4.2 °C 1007.0 hPa WSW 5.6 km/h 9.0 km/h 69 % 0.0 mm
22:19 9.6 °C 4.2 °C 1007.0 hPa WSW 5.6 km/h 9.0 km/h 69 % 0.0 mm
22:24 9.6 °C 4.2 °C 1007.0 hPa WSW 5.6 km/h 9.0 km/h 69 % 0.0 mm
22:29 9.6 °C 4.2 °C 1007.0 hPa WSW 5.6 km/h 9.0 km/h 69 % 0.0 mm
22:34 9.6 °C 4.2 °C 1007.0 hPa WSW 5.6 km/h 9.0 km/h 69 % 0.0 mm
22:39 9.6 °C 4.2 °C 1007.0 hPa WSW 5.6 km/h 9.0 km/h 69 % 0.0 mm
22:44 9.5 °C 4.1 °C 1007.0 hPa WSW 5.6 km/h 9.0 km/h 69 % 0.0 mm
22:49 9.6 °C 4.2 °C 1007.0 hPa WSW 5.6 km/h 9.0 km/h 69 % 0.0 mm
22:54 9.6 °C 4.2 °C 1007.0 hPa WSW 5.6 km/h 9.0 km/h 69 % 0.0 mm
22:59 9.7 °C 4.3 °C 1007.0 hPa WSW 5.6 km/h 9.0 km/h 69 % 0.0 mm
23:04 9.8 °C 4.4 °C 1007.0 hPa WSW 5.6 km/h 9.0 km/h 69 % 0.0 mm
23:09 9.8 °C 4.4 °C 1007.0 hPa WSW 5.6 km/h 9.0 km/h 69 % 0.0 mm
23:14 9.8 °C 4.4 °C 1006.0 hPa WSW 5.6 km/h 9.0 km/h 69 % 0.0 mm
23:19 9.9 °C 4.5 °C 1006.0 hPa WSW 5.6 km/h 9.0 km/h 69 % 0.0 mm
23:24 9.9 °C 4.5 °C 1006.0 hPa WSW 5.6 km/h 9.0 km/h 69 % 0.0 mm
23:29 10.0 °C 4.6 °C 1006.0 hPa WSW 5.6 km/h 9.0 km/h 69 % 0.0 mm
Meteo Sesrovires
Elogis d' Weather Underground - 3.25 mb

Guio original per  Jim McMurry - jmcmurry@mwt.net Adaptat per a la plantilla per  Wim van der Kuil - Leuven-Template.eu

Trobareu la nostra informacio del temps tambe a:

Weather Underground

AWEKAS